Time;durP1;ratioP1;P1;durP2;ratioP2;P2;SDS_P1;SDS_P2;PMS_P1;PMS_P2;Temp;Humidity;BMP_temperature;BMP_pressure;BME280_temperature;BME280_humidity;BME280_pressure;Samples;Min_cycle;Max_cycle;Signal;HPM_P1;HPM_P2
2021/12/20 00:01:11;;;;;;;4.80;2.30;;;-2.60;99.90;;;;;;5051659;28;20742;-84
2021/12/20 00:03:38;;;;;;;3.78;2.42;;;-2.60;99.90;;;;;;5053579;28;20569;-82
2021/12/20 00:06:06;;;;;;;4.35;2.15;;;-2.60;99.90;;;;;;5053513;28;20749;-83
2021/12/20 00:08:36;;;;;;;4.60;2.20;;;-2.70;99.90;;;;;;5034729;28;20397;-83
2021/12/20 00:11:04;;;;;;;3.20;2.00;;;-2.70;99.90;;;;;;5032448;28;20404;-83
2021/12/20 00:13:32;;;;;;;3.08;2.10;;;-2.80;99.90;;;;;;5050230;28;20812;-83
2021/12/20 00:15:59;;;;;;;2.92;2.05;;;-2.90;99.90;;;;;;5052173;28;20396;-83
2021/12/20 00:18:27;;;;;;;2.80;1.80;;;-2.90;99.90;;;;;;5053257;28;20384;-83
2021/12/20 00:20:55;;;;;;;3.27;1.57;;;-2.90;99.90;;;;;;5053301;28;20395;-84
2021/12/20 00:23:22;;;;;;;2.50;1.40;;;-3.10;99.90;;;;;;5052041;28;20431;-83
2021/12/20 00:25:50;;;;;;;3.03;1.63;;;-3.10;99.90;;;;;;5053278;28;20396;-83
2021/12/20 00:28:19;;;;;;;2.03;1.40;;;-3.20;99.90;;;;;;5040719;28;20388;-84
2021/12/20 00:30:47;;;;;;;2.08;1.30;;;-3.10;99.90;;;;;;5048537;28;20512;-84
2021/12/20 00:33:15;;;;;;;2.78;1.52;;;-3.20;99.90;;;;;;5033167;28;20527;-84
2021/12/20 00:35:44;;;;;;;2.35;1.35;;;-3.20;99.90;;;;;;5032093;28;20462;-83
2021/12/20 00:40:57;;;;;;;3.00;1.48;;;-3.20;99.90;;;;;;5031858;28;20397;-83
2021/12/20 00:43:25;;;;;;;2.78;1.60;;;-3.20;99.90;;;;;;5031934;28;20396;-83
2021/12/20 00:45:53;;;;;;;2.38;1.30;;;-3.20;99.90;;;;;;5048488;28;20394;-83
2021/12/20 00:48:20;;;;;;;2.60;1.20;;;-3.20;99.90;;;;;;5048151;28;20393;-84
2021/12/20 00:50:48;;;;;;;2.50;1.42;;;-3.30;99.90;;;;;;5048157;28;20385;-85
2021/12/20 00:53:16;;;;;;;2.72;1.30;;;-3.20;99.90;;;;;;5048129;28;20489;-83
2021/12/20 00:55:44;;;;;;;2.17;1.35;;;-3.20;99.90;;;;;;5048079;28;20883;-84
2021/12/20 00:58:11;;;;;;;2.30;1.20;;;-3.30;99.90;;;;;;5048019;28;20401;-84
2021/12/20 01:00:42;;;;;;;2.33;1.30;;;-3.30;99.90;;;;;;5030870;28;20390;-83
2021/12/20 01:03:11;;;;;;;3.30;1.47;;;-3.30;99.90;;;;;;5047877;28;20413;-83
2021/12/20 01:05:40;;;;;;;2.65;1.30;;;-3.30;99.90;;;;;;5032468;28;20389;-84
2021/12/20 01:08:09;;;;;;;2.28;1.50;;;-3.50;99.90;;;;;;5032575;28;20390;-83
2021/12/20 01:10:39;;;;;;;1.88;1.20;;;-3.40;99.90;;;;;;5050955;28;20422;-83
2021/12/20 01:13:08;;;;;;;3.60;1.30;;;-3.50;99.90;;;;;;5052359;28;20778;-84
2021/12/20 01:15:47;;;;;;;2.00;1.30;;;-3.50;99.90;;;;;;5052114;28;20465;-84
2021/12/20 01:18:15;;;;;;;2.97;1.60;;;-3.50;99.90;;;;;;5041718;28;20378;-83
2021/12/20 01:20:43;;;;;;;3.03;1.50;;;-3.40;99.90;;;;;;5047457;28;20464;-85
2021/12/20 01:23:12;;;;;;;2.00;1.13;;;-3.40;99.90;;;;;;5047535;28;20397;-83
2021/12/20 01:25:40;;;;;;;2.53;1.30;;;-3.40;99.90;;;;;;5030902;28;20401;-84
2021/12/20 01:28:09;;;;;;;1.52;1.08;;;-3.50;99.90;;;;;;5030728;28;20895;-84
2021/12/20 01:30:39;;;;;;;2.43;1.20;;;-3.50;99.90;;;;;;5030985;28;20443;-83
2021/12/20 01:33:08;;;;;;;2.00;1.30;;;-3.60;99.90;;;;;;5031927;28;20389;-83
2021/12/20 01:35:36;;;;;;;2.00;1.30;;;-3.80;99.90;;;;;;5047433;28;20389;-85
2021/12/20 01:38:05;;;;;;;3.25;1.20;;;-3.70;99.90;;;;;;5032161;28;20386;-85
2021/12/20 01:40:35;;;;;;;1.60;1.00;;;-3.60;99.90;;;;;;5032022;28;20469;-84
2021/12/20 01:43:06;;;;;;;2.28;1.05;;;-3.70;99.90;;;;;;5047396;28;20484;-85
2021/12/20 01:45:34;;;;;;;2.50;1.00;;;-3.90;99.90;;;;;;5014363;28;20393;-83
2021/12/20 01:48:13;;;;;;;1.65;1.00;;;-4.10;99.90;;;;;;5047186;28;20413;-84
2021/12/20 01:53:17;;;;;;;2.30;1.17;;;-4.10;99.90;;;;;;5070237;28;20382;-83
2021/12/20 01:55:44;;;;;;;1.63;1.10;;;-4.00;99.90;;;;;;5071776;28;20392;-84
2021/12/20 01:58:12;;;;;;;1.47;0.83;;;-4.00;99.90;;;;;;5071562;28;20382;-83
2021/12/20 02:01:26;;;;;;;3.63;1.00;;;-4.20;99.90;;;;;;5070731;28;20390;-83
2021/12/20 02:03:32;;;;;;;2.13;0.88;;;-4.30;99.90;;;;;;5064883;28;20397;-83
2021/12/20 02:06:04;;;;;;;1.27;0.70;;;-4.20;99.90;;;;;;5070542;28;20397;-84
2021/12/20 02:08:32;;;;;;;1.42;0.70;;;-4.30;99.90;;;;;;5071610;28;20413;-84
2021/12/20 02:11:12;;;;;;;0.87;0.70;;;-4.30;99.90;;;;;;5070244;28;20394;-83
2021/12/20 02:13:41;;;;;;;1.17;0.65;;;-4.40;99.90;;;;;;5067075;28;20436;-84
2021/12/20 02:16:08;;;;;;;0.90;0.60;;;-4.30;99.90;;;;;;5031365;28;20404;-83
2021/12/20 02:18:36;;;;;;;1.00;0.60;;;-4.40;99.90;;;;;;5030415;28;20476;-84
2021/12/20 02:21:05;;;;;;;1.98;0.80;;;-4.50;99.90;;;;;;5030256;28;20763;-84
2021/12/20 02:23:33;;;;;;;1.73;0.70;;;-4.40;99.90;;;;;;5033407;28;20912;-84
2021/12/20 02:26:01;;;;;;;1.13;0.70;;;-4.40;99.90;;;;;;5051309;28;20387;-83
2021/12/20 02:28:35;;;;;;;1.75;0.60;;;-4.50;99.90;;;;;;5046809;28;20389;-83
2021/12/20 02:37:00;;;;;;;0.90;0.68;;;-4.60;99.90;;;;;;5031275;28;20482;-84
2021/12/20 02:39:39;;;;;;;0.80;0.50;;;-4.70;99.90;;;;;;5043899;28;20387;-85
2021/12/20 02:42:09;;;;;;;1.10;0.50;;;-4.70;99.90;;;;;;5051166;28;20390;-85
2021/12/20 02:44:37;;;;;;;1.83;0.60;;;-4.70;99.90;;;;;;5050131;28;20461;-85
2021/12/20 02:47:06;;;;;;;1.02;0.57;;;-4.70;99.90;;;;;;5050118;28;20508;-84
2021/12/20 02:49:35;;;;;;;1.48;0.43;;;-4.60;99.90;;;;;;5051227;28;20414;-86
2021/12/20 02:52:07;;;;;;;0.68;0.50;;;-4.70;99.90;;;;;;5033398;28;20388;-85
2021/12/20 02:54:36;;;;;;;0.85;0.40;;;-4.70;99.90;;;;;;5041760;28;20406;-84
2021/12/20 02:57:04;;;;;;;1.77;0.50;;;-4.80;99.90;;;;;;5030097;28;20435;-85
2021/12/20 02:59:32;;;;;;;1.02;0.50;;;-4.80;99.90;;;;;;5049617;28;20388;-85
2021/12/20 03:02:05;;;;;;;1.17;0.47;;;-4.80;99.90;;;;;;5050939;28;20380;-84
2021/12/20 03:04:34;;;;;;;0.47;0.38;;;-4.90;99.90;;;;;;5050968;28;20427;-85
2021/12/20 03:07:08;;;;;;;0.65;0.50;;;-5.00;99.90;;;;;;5050901;28;20388;-84
2021/12/20 03:09:39;;;;;;;1.52;0.50;;;-5.00;99.90;;;;;;5050872;28;20437;-84
2021/12/20 03:12:09;;;;;;;0.50;0.40;;;-5.00;99.90;;;;;;5066267;28;20953;-84
2021/12/20 03:14:41;;;;;;;1.15;0.40;;;-4.90;99.90;;;;;;5049561;28;20469;-86
2021/12/20 03:17:10;;;;;;;1.25;0.60;;;-5.00;99.90;;;;;;5066239;28;20936;-84
2021/12/20 03:19:38;;;;;;;1.48;0.55;;;-5.00;99.90;;;;;;5038706;28;20459;-84
2021/12/20 03:22:06;;;;;;;1.20;0.50;;;-4.90;99.90;;;;;;5029615;28;20396;-84
2021/12/20 03:24:34;;;;;;;1.52;0.55;;;-4.90;99.90;;;;;;5033629;28;20747;-85
2021/12/20 03:27:02;;;;;;;0.80;0.50;;;-5.00;99.90;;;;;;5049698;28;20394;-85
2021/12/20 03:29:30;;;;;;;1.33;0.50;;;-5.00;99.90;;;;;;5034470;28;20417;-84
2021/12/20 03:31:58;;;;;;;1.35;0.50;;;-5.00;99.90;;;;;;5034527;28;20389;-85
2021/12/20 03:34:26;;;;;;;0.80;0.40;;;-5.00;99.90;;;;;;5049505;28;20433;-84
2021/12/20 03:36:53;;;;;;;1.02;0.50;;;-5.00;99.90;;;;;;5033164;28;20389;-84
2021/12/20 03:39:21;;;;;;;0.90;0.50;;;-5.00;99.90;;;;;;5033033;28;20421;-84
2021/12/20 03:41:48;;;;;;;1.05;0.57;;;-4.80;99.90;;;;;;5032956;28;20879;-84
2021/12/20 03:44:16;;;;;;;1.07;0.60;;;-4.90;99.90;;;;;;5016544;28;20889;-84
2021/12/20 03:46:44;;;;;;;0.93;0.57;;;-5.10;99.90;;;;;;5034149;28;20416;-84
2021/12/20 03:49:11;;;;;;;2.05;0.60;;;-5.10;99.90;;;;;;5034187;28;20786;-85
2021/12/20 03:51:39;;;;;;;0.77;0.57;;;-5.10;99.90;;;;;;5049491;28;20899;-84
2021/12/20 03:54:07;;;;;;;1.30;0.43;;;-5.20;99.90;;;;;;5032725;28;20790;-84
2021/12/20 03:56:35;;;;;;;2.30;0.60;;;-5.10;99.90;;;;;;5049389;28;20825;-84
2021/12/20 03:59:02;;;;;;;2.10;0.60;;;-5.10;99.90;;;;;;5033442;28;20384;-85
2021/12/20 04:01:31;;;;;;;1.00;0.50;;;-5.20;99.90;;;;;;5040122;28;20440;-84
2021/12/20 04:04:00;;;;;;;1.20;0.50;;;-5.10;99.90;;;;;;5033801;28;20385;-84
2021/12/20 04:06:29;;;;;;;1.58;0.50;;;-5.10;99.90;;;;;;5033687;28;20899;-85
2021/12/20 04:08:56;;;;;;;1.80;0.68;;;-5.10;99.90;;;;;;5048849;28;20759;-84
2021/12/20 04:11:24;;;;;;;1.50;0.60;;;-5.10;99.90;;;;;;5032475;28;20398;-85
2021/12/20 04:13:52;;;;;;;1.10;0.57;;;-5.10;99.90;;;;;;5032363;28;20400;-84
2021/12/20 04:16:19;;;;;;;1.20;0.57;;;-5.00;99.90;;;;;;5032073;28;20432;-85
2021/12/20 04:18:47;;;;;;;1.20;0.50;;;-5.20;99.90;;;;;;5033504;28;20420;-83
2021/12/20 04:21:14;;;;;;;1.80;0.60;;;-5.10;99.90;;;;;;5033447;28;20396;-84
2021/12/20 04:23:42;;;;;;;0.93;0.60;;;-5.10;99.90;;;;;;5032152;28;20823;-84
2021/12/20 04:26:09;;;;;;;1.58;0.50;;;-5.00;99.90;;;;;;5032339;28;20390;-85
2021/12/20 04:28:37;;;;;;;1.48;0.70;;;-5.00;99.90;;;;;;5033314;28;20846;-84
2021/12/20 04:31:04;;;;;;;1.05;0.70;;;-5.10;99.90;;;;;;5033461;28;20506;-83
2021/12/20 04:33:32;;;;;;;1.20;0.70;;;-5.10;99.90;;;;;;5032092;28;20386;-84
2021/12/20 04:35:59;;;;;;;1.60;0.70;;;-5.20;99.90;;;;;;5030771;28;20440;-84
2021/12/20 04:38:29;;;;;;;0.88;0.65;;;-5.10;99.90;;;;;;5033092;28;20424;-83
2021/12/20 04:40:57;;;;;;;1.65;0.70;;;-5.20;99.90;;;;;;5033335;28;20389;-86
2021/12/20 04:43:24;;;;;;;2.30;0.82;;;-5.20;99.90;;;;;;5033209;28;20393;-85
2021/12/20 04:45:52;;;;;;;2.83;1.10;;;-5.20;99.90;;;;;;5031873;28;20393;-85
2021/12/20 04:48:19;;;;;;;2.42;0.80;;;-5.20;99.90;;;;;;5032928;28;20393;-84
2021/12/20 04:50:47;;;;;;;2.50;0.73;;;-5.20;99.90;;;;;;5031670;28;20389;-84
2021/12/20 04:53:15;;;;;;;1.90;0.70;;;-5.30;99.90;;;;;;5031770;28;20948;-84
2021/12/20 04:55:43;;;;;;;3.40;1.05;;;-5.30;99.90;;;;;;5031549;28;20923;-83
2021/12/20 04:58:11;;;;;;;2.45;0.82;;;-5.30;99.90;;;;;;5031512;28;20393;-85
2021/12/20 05:00:43;;;;;;;1.40;0.80;;;-5.40;99.90;;;;;;5048198;28;20397;-84
2021/12/20 05:03:12;;;;;;;1.00;0.63;;;-5.30;99.90;;;;;;5048002;28;20431;-83
2021/12/20 05:05:40;;;;;;;1.80;0.80;;;-5.40;99.90;;;;;;5031255;28;20397;-84
2021/12/20 05:08:08;;;;;;;3.72;1.00;;;-5.40;99.90;;;;;;5032485;28;20896;-85
2021/12/20 05:10:38;;;;;;;2.08;0.80;;;-5.50;99.90;;;;;;5032561;28;20439;-85
2021/12/20 05:13:08;;;;;;;2.30;0.80;;;-5.40;99.90;;;;;;5032623;28;20389;-84
2021/12/20 05:15:37;;;;;;;2.87;0.97;;;-5.50;99.90;;;;;;5030854;28;20419;-85
2021/12/20 05:18:07;;;;;;;1.47;0.83;;;-5.50;99.90;;;;;;5014807;28;20390;-84
2021/12/20 05:20:35;;;;;;;2.70;0.80;;;-5.50;99.90;;;;;;5031265;28;20416;-85
2021/12/20 05:23:04;;;;;;;1.88;0.95;;;-5.50;99.90;;;;;;5030924;28;20393;-84
2021/12/20 05:25:32;;;;;;;2.78;1.00;;;-5.50;99.90;;;;;;5031126;28;20791;-84
2021/12/20 05:28:00;;;;;;;2.23;1.00;;;-5.50;99.90;;;;;;5030845;28;20447;-84
2021/12/20 05:30:27;;;;;;;3.07;1.10;;;-5.60;99.90;;;;;;5030968;28;20824;-84
2021/12/20 05:32:55;;;;;;;2.30;0.80;;;-5.50;99.90;;;;;;5055299;28;20433;-84
2021/12/20 05:35:24;;;;;;;1.23;0.75;;;-5.50;99.90;;;;;;5047446;28;20409;-85
2021/12/20 05:37:53;;;;;;;2.00;0.93;;;-5.50;99.90;;;;;;5047626;28;20393;-84
2021/12/20 05:40:21;;;;;;;3.30;1.00;;;-5.60;99.90;;;;;;5042833;28;20401;-85
2021/12/20 05:42:49;;;;;;;2.25;0.80;;;-5.40;99.90;;;;;;5047622;28;20751;-84
2021/12/20 05:45:18;;;;;;;2.72;0.93;;;-5.50;99.90;;;;;;5032015;28;20389;-85
2021/12/20 05:47:46;;;;;;;1.75;0.80;;;-5.40;99.90;;;;;;5031663;28;20385;-84
2021/12/20 05:50:16;;;;;;;1.70;0.95;;;-5.50;99.90;;;;;;5030441;28;20404;-84
2021/12/20 05:52:44;;;;;;;1.65;0.88;;;-5.60;99.90;;;;;;5030556;28;20385;-84
2021/12/20 05:55:11;;;;;;;2.38;0.93;;;-5.60;99.90;;;;;;5030451;28;20444;-85
2021/12/20 05:57:39;;;;;;;2.13;0.93;;;-5.60;99.90;;;;;;5030833;28;20390;-85
2021/12/20 06:00:18;;;;;;;2.25;0.85;;;-5.50;99.90;;;;;;5038560;28;20433;-84
2021/12/20 06:02:49;;;;;;;2.35;1.00;;;-5.50;99.90;;;;;;5033952;28;20396;-84
2021/12/20 06:05:18;;;;;;;1.50;0.87;;;-5.60;99.90;;;;;;5053656;28;20780;-83
2021/12/20 06:07:48;;;;;;;2.25;0.98;;;-5.60;99.90;;;;;;5070496;28;20386;-84
2021/12/20 06:10:18;;;;;;;2.65;1.00;;;-5.60;99.90;;;;;;5049584;28;20424;-84
2021/12/20 06:12:46;;;;;;;2.00;0.85;;;-5.60;99.90;;;;;;5039810;28;20404;-84
2021/12/20 06:15:14;;;;;;;3.05;0.88;;;-5.60;99.90;;;;;;5050988;28;21077;-84
2021/12/20 06:17:41;;;;;;;1.83;0.80;;;-5.70;99.90;;;;;;5033844;28;20395;-84
2021/12/20 06:20:11;;;;;;;2.38;0.90;;;-5.60;99.90;;;;;;5048235;28;20882;-84
2021/12/20 06:22:38;;;;;;;2.37;0.90;;;-5.60;99.90;;;;;;5033577;28;20384;-84
2021/12/20 06:25:07;;;;;;;2.60;1.00;;;-5.60;99.90;;;;;;5051422;28;20398;-84
2021/12/20 06:27:34;;;;;;;2.75;1.05;;;-5.70;99.90;;;;;;5051385;28;20391;-84
2021/12/20 06:30:04;;;;;;;1.67;1.10;;;-5.60;99.90;;;;;;5049935;28;20396;-84
2021/12/20 06:32:31;;;;;;;2.22;1.00;;;-5.60;99.90;;;;;;5046886;28;20441;-84
2021/12/20 06:34:59;;;;;;;2.33;1.10;;;-5.70;99.90;;;;;;5071265;28;20394;-85
2021/12/20 06:37:26;;;;;;;2.40;1.00;;;-5.70;99.90;;;;;;5056211;28;20432;-84
2021/12/20 06:39:54;;;;;;;1.83;1.00;;;-5.80;99.90;;;;;;5040198;28;20469;-84
2021/12/20 06:42:21;;;;;;;3.35;1.25;;;-5.80;99.90;;;;;;5056628;28;20737;-84
2021/12/20 06:44:49;;;;;;;1.58;0.90;;;-5.70;99.90;;;;;;5071419;28;20390;-84
2021/12/20 06:47:18;;;;;;;2.60;1.00;;;-5.80;99.90;;;;;;5071008;28;20421;-83
2021/12/20 06:49:46;;;;;;;3.42;1.38;;;-5.80;99.90;;;;;;5069864;28;20464;-84
2021/12/20 06:52:14;;;;;;;4.07;1.40;;;-5.80;99.90;;;;;;5057212;28;20431;-84
2021/12/20 06:54:42;;;;;;;1.70;0.93;;;-5.80;99.90;;;;;;5040294;28;20482;-84
2021/12/20 06:57:09;;;;;;;2.25;1.13;;;-5.70;99.90;;;;;;5031031;28;20447;-85
2021/12/20 06:59:36;;;;;;;3.05;1.10;;;-5.80;99.90;;;;;;5034028;28;20480;-85
2021/12/20 07:02:04;;;;;;;3.53;1.30;;;-5.80;99.90;;;;;;5033622;28;20396;-84
2021/12/20 07:04:31;;;;;;;2.70;1.08;;;-5.80;99.90;;;;;;5034900;28;20404;-84
2021/12/20 07:06:59;;;;;;;1.95;1.10;;;-5.80;99.90;;;;;;5034727;28;20393;-84
2021/12/20 07:09:27;;;;;;;2.40;1.15;;;-5.90;99.90;;;;;;5034682;28;20389;-83
2021/12/20 07:11:54;;;;;;;3.42;1.40;;;-5.90;99.90;;;;;;5034669;28;20876;-84
2021/12/20 07:14:26;;;;;;;3.15;1.13;;;-5.90;99.90;;;;;;5053139;28;20395;-83
2021/12/20 07:16:57;;;;;;;3.38;1.20;;;-5.80;99.90;;;;;;5069455;28;20817;-84
2021/12/20 07:19:25;;;;;;;1.98;0.93;;;-5.80;99.90;;;;;;5049779;28;20764;-84
2021/12/20 07:21:52;;;;;;;3.25;1.17;;;-5.90;99.90;;;;;;5034543;28;20389;-85
2021/12/20 07:24:20;;;;;;;2.78;1.30;;;-5.90;99.90;;;;;;5049772;28;20433;-84
2021/12/20 07:26:48;;;;;;;2.55;1.10;;;-5.90;99.90;;;;;;5054736;28;20449;-85
2021/12/20 07:29:18;;;;;;;1.87;1.17;;;-5.90;99.90;;;;;;5069520;28;20487;-84
2021/12/20 07:31:46;;;;;;;3.80;1.40;;;-5.90;99.90;;;;;;5054269;28;20458;-84
2021/12/20 07:34:13;;;;;;;2.90;1.20;;;-5.90;99.90;;;;;;5037946;28;20480;-84
2021/12/20 07:36:41;;;;;;;2.63;1.13;;;-5.90;99.90;;;;;;5052123;28;20406;-84
2021/12/20 07:39:08;;;;;;;3.03;1.10;;;-5.90;99.90;;;;;;5049731;28;20476;-84
2021/12/20 07:41:51;;;;;;;2.20;1.10;;;-5.80;99.90;;;;;;5032934;28;20822;-84
2021/12/20 07:44:21;;;;;;;3.63;1.15;;;-5.90;99.90;;;;;;5018207;28;20430;-84
2021/12/20 07:46:50;;;;;;;2.67;1.13;;;-5.90;99.90;;;;;;5042961;28;20890;-84
2021/12/20 07:49:17;;;;;;;1.43;0.90;;;-5.90;99.90;;;;;;5049501;28;20420;-84
2021/12/20 07:51:46;;;;;;;1.90;1.00;;;-5.90;99.90;;;;;;5033041;28;20479;-83
2021/12/20 07:54:13;;;;;;;2.90;1.10;;;-5.90;99.90;;;;;;5034529;28;20755;-84
2021/12/20 07:56:41;;;;;;;3.08;0.90;;;-6.00;99.90;;;;;;5039466;28;20751;-85
2021/12/20 07:59:08;;;;;;;4.45;1.25;;;-5.90;99.90;;;;;;5033967;28;20493;-84
2021/12/20 08:01:36;;;;;;;2.40;1.00;;;-5.90;99.90;;;;;;5033998;28;20386;-84
2021/12/20 08:04:06;;;;;;;1.95;1.02;;;-5.90;99.90;;;;;;5049305;28;20885;-84
2021/12/20 08:06:35;;;;;;;1.75;1.00;;;-5.90;99.90;;;;;;5033676;28;20396;-83
2021/12/20 08:09:04;;;;;;;1.70;1.00;;;-6.00;99.90;;;;;;5048806;28;20903;-83
2021/12/20 08:11:33;;;;;;;2.10;1.00;;;-5.90;99.90;;;;;;5049173;28;20400;-85
2021/12/20 08:14:01;;;;;;;3.07;1.00;;;-5.90;99.90;;;;;;5055669;28;20434;-84
2021/12/20 08:16:29;;;;;;;1.85;0.95;;;-6.00;99.90;;;;;;5047415;28;20413;-83
2021/12/20 08:18:57;;;;;;;2.60;1.13;;;-5.90;99.90;;;;;;5032530;28;20452;-84
2021/12/20 08:21:24;;;;;;;2.92;1.17;;;-5.90;99.90;;;;;;5032317;28;20390;-84
2021/12/20 08:23:52;;;;;;;2.90;1.20;;;-5.90;99.90;;;;;;5037005;28;20789;-84
2021/12/20 08:26:20;;;;;;;2.15;1.10;;;-5.80;99.90;;;;;;5057632;28;20402;-85
2021/12/20 08:28:47;;;;;;;1.80;1.00;;;-5.80;99.90;;;;;;5033540;28;20412;-85
2021/12/20 08:31:15;;;;;;;3.47;1.10;;;-5.80;99.90;;;;;;5032165;28;20432;-84
2021/12/20 08:33:42;;;;;;;2.42;0.93;;;-5.90;99.90;;;;;;5067716;28;20419;-83
2021/12/20 08:36:12;;;;;;;2.30;0.90;;;-6.00;99.90;;;;;;5051800;28;20461;-84
2021/12/20 08:38:41;;;;;;;2.33;1.08;;;-6.10;99.90;;;;;;5051951;28;20754;-84
2021/12/20 08:41:11;;;;;;;1.90;0.80;;;-6.10;99.90;;;;;;5051798;28;20399;-84
2021/12/20 08:43:39;;;;;;;3.08;0.90;;;-6.00;99.90;;;;;;5051746;28;20453;-84
2021/12/20 08:46:09;;;;;;;5.68;1.10;;;-6.10;99.90;;;;;;5052823;28;20735;-83
2021/12/20 08:48:37;;;;;;;2.20;1.00;;;-6.10;99.90;;;;;;5051443;28;20898;-82
2021/12/20 08:51:06;;;;;;;3.33;0.90;;;-6.20;99.90;;;;;;5052774;28;20419;-83
2021/12/20 08:53:34;;;;;;;1.50;0.80;;;-6.20;99.90;;;;;;5052726;28;20396;-84
2021/12/20 08:56:03;;;;;;;2.60;0.90;;;-6.20;99.90;;;;;;5051358;28;20403;-84
2021/12/20 08:58:31;;;;;;;1.67;0.90;;;-6.20;99.90;;;;;;5047893;28;20490;-83
2021/12/20 09:00:58;;;;;;;2.33;0.95;;;-6.30;99.90;;;;;;5031438;28;20386;-83
2021/12/20 09:03:30;;;;;;;2.90;0.80;;;-6.30;99.90;;;;;;5048110;28;20439;-84
2021/12/20 09:05:58;;;;;;;2.17;0.85;;;-6.40;99.90;;;;;;5048152;28;20409;-85
2021/12/20 09:08:28;;;;;;;2.25;0.77;;;-6.40;99.90;;;;;;5031241;28;20757;-84
2021/12/20 09:10:57;;;;;;;1.33;0.70;;;-6.40;99.90;;;;;;5047911;28;20393;-84
2021/12/20 09:13:24;;;;;;;2.08;0.90;;;-6.30;99.90;;;;;;5032346;28;20396;-85
2021/12/20 09:15:54;;;;;;;1.60;0.90;;;-6.30;99.90;;;;;;5032205;28;20492;-83
2021/12/20 09:18:21;;;;;;;2.30;0.90;;;-6.30;99.90;;;;;;5032417;28;20392;-83
2021/12/20 09:20:51;;;;;;;2.55;0.88;;;-6.20;99.90;;;;;;5030659;28;20485;-84
2021/12/20 09:23:18;;;;;;;1.70;0.80;;;-6.20;99.90;;;;;;5047546;28;20890;-83
2021/12/20 09:25:47;;;;;;;1.35;0.77;;;-6.20;99.90;;;;;;5032315;28;20402;-83
2021/12/20 09:28:15;;;;;;;1.77;0.80;;;-6.20;99.90;;;;;;5047571;28;20452;-84
2021/12/20 09:30:45;;;;;;;1.50;0.80;;;-6.20;99.90;;;;;;5030891;28;20465;-84
2021/12/20 09:33:14;;;;;;;1.65;0.93;;;-6.10;99.90;;;;;;5031387;28;20511;-83
2021/12/20 09:35:42;;;;;;;1.65;0.70;;;-6.10;99.90;;;;;;5031865;28;20455;-83
2021/12/20 09:38:15;;;;;;;2.15;1.08;;;-6.10;99.90;;;;;;5031984;28;20413;-83
2021/12/20 09:41:02;;;;;;;1.80;0.90;;;-6.10;99.90;;;;;;5032119;28;20389;-83
2021/12/20 09:43:30;;;;;;;1.33;0.80;;;-6.00;99.90;;;;;;5032085;28;20820;-83
2021/12/20 09:45:57;;;;;;;1.38;0.73;;;-6.00;99.90;;;;;;5040309;28;20395;-82
2021/12/20 09:48:26;;;;;;;1.90;0.80;;;-6.00;99.90;;;;;;5051760;28;20456;-83
2021/12/20 09:50:54;;;;;;;2.63;0.90;;;-5.90;99.90;;;;;;5051575;28;20858;-83
2021/12/20 09:53:22;;;;;;;2.10;0.85;;;-5.80;99.90;;;;;;5047556;28;20509;-83
2021/12/20 09:55:51;;;;;;;2.35;1.00;;;-5.90;99.90;;;;;;5046883;28;20409;-84
2021/12/20 09:58:23;;;;;;;1.45;0.82;;;-5.90;99.90;;;;;;5031785;28;20400;-83
2021/12/20 10:00:52;;;;;;;1.70;0.82;;;-5.90;99.90;;;;;;5033593;28;20389;-82
2021/12/20 10:03:26;;;;;;;2.42;0.98;;;-5.90;99.90;;;;;;5051488;28;20387;-83
2021/12/20 10:05:55;;;;;;;2.40;0.85;;;-5.90;99.90;;;;;;5051596;28;20482;-83
2021/12/20 10:08:35;;;;;;;2.13;0.93;;;-5.90;99.90;;;;;;5050446;28;20387;-83
2021/12/20 10:11:17;;;;;;;1.80;0.90;;;-5.90;99.90;;;;;;5051451;28;21074;-83
2021/12/20 10:13:45;;;;;;;1.80;0.80;;;-6.00;99.90;;;;;;5051148;28;20399;-82
2021/12/20 10:16:19;;;;;;;1.55;1.08;;;-5.90;99.90;;;;;;5039869;28;20510;-84
2021/12/20 10:18:47;;;;;;;2.67;1.00;;;-6.00;99.90;;;;;;5055122;28;20394;-83
2021/12/20 10:21:16;;;;;;;3.05;1.00;;;-5.90;99.90;;;;;;5044605;28;20384;-84
2021/12/20 10:23:46;;;;;;;4.17;1.03;;;-5.90;99.90;;;;;;5040693;28;20394;-84
2021/12/20 10:26:18;;;;;;;3.45;1.08;;;-5.90;99.90;;;;;;5051277;28;20419;-84
2021/12/20 10:28:52;;;;;;;1.90;0.95;;;-6.00;99.90;;;;;;5051341;28;20388;-84
2021/12/20 10:31:22;;;;;;;2.20;1.10;;;-6.00;99.90;;;;;;5051287;28;20399;-85
2021/12/20 10:34:02;;;;;;;2.53;1.20;;;-6.00;99.90;;;;;;5068632;28;20391;-84
2021/12/20 10:36:32;;;;;;;3.13;1.40;;;-6.10;99.90;;;;;;5035556;28;20405;-85
2021/12/20 10:39:03;;;;;;;2.95;1.20;;;-6.10;99.90;;;;;;5017733;28;20447;-84
2021/12/20 10:41:37;;;;;;;3.08;1.20;;;-6.10;99.90;;;;;;5035363;28;20389;-83
2021/12/20 10:44:24;;;;;;;3.33;1.40;;;-6.10;99.90;;;;;;5035301;28;20396;-82
2021/12/20 10:46:54;;;;;;;3.58;1.40;;;-6.10;99.90;;;;;;5035412;28;20393;-84
2021/12/20 10:49:26;;;;;;;3.15;1.23;;;-6.10;99.90;;;;;;5050452;28;20439;-83
2021/12/20 10:51:55;;;;;;;2.95;1.20;;;-6.20;99.90;;;;;;5034124;28;20886;-83
2021/12/20 10:54:29;;;;;;;2.55;1.20;;;-6.30;99.90;;;;;;5054900;28;20441;-83
2021/12/20 10:57:05;;;;;;;2.20;1.30;;;-6.30;99.90;;;;;;5055003;28;20403;-84
2021/12/20 10:59:35;;;;;;;3.63;1.20;;;-6.30;99.90;;;;;;5053682;28;20407;-83
2021/12/20 11:04:59;;;;;;;3.35;1.27;;;-6.40;99.90;;;;;;5053493;28;20394;-83
2021/12/20 11:10:02;;;;;;;2.53;1.20;;;-6.40;99.90;;;;;;5053456;28;20483;-83
2021/12/20 11:12:32;;;;;;;2.28;1.30;;;-6.40;99.90;;;;;;5052137;28;20392;-83
2021/12/20 11:15:11;;;;;;;2.80;1.20;;;-6.40;99.90;;;;;;5054528;28;20399;-84
2021/12/20 11:17:44;;;;;;;2.85;1.00;;;-6.50;99.90;;;;;;5054644;28;20407;-83
2021/12/20 11:20:18;;;;;;;2.15;1.10;;;-6.60;99.90;;;;;;5054788;28;20861;-83
2021/12/20 11:22:46;;;;;;;3.50;1.20;;;-6.60;99.90;;;;;;5054552;28;20391;-84
2021/12/20 11:25:15;;;;;;;1.67;0.90;;;-6.60;99.90;;;;;;5054411;28;20945;-83
2021/12/20 11:27:53;;;;;;;2.50;1.00;;;-6.80;99.90;;;;;;5054308;28;20482;-83
2021/12/20 11:30:23;;;;;;;3.20;1.00;;;-6.80;99.90;;;;;;5053135;28;20400;-83
2021/12/20 11:32:51;;;;;;;2.05;1.08;;;-6.80;99.90;;;;;;5054269;28;20395;-84
2021/12/20 11:35:20;;;;;;;1.77;1.10;;;-6.70;99.90;;;;;;5036445;28;20416;-83
2021/12/20 11:37:48;;;;;;;2.55;1.08;;;-6.80;99.90;;;;;;5052941;28;20459;-83
2021/12/20 11:40:18;;;;;;;2.60;1.25;;;-6.70;99.90;;;;;;5053037;28;20386;-84
2021/12/20 11:42:46;;;;;;;2.97;1.27;;;-6.50;99.90;;;;;;5052999;28;20471;-84
2021/12/20 11:45:16;;;;;;;3.13;1.40;;;-6.60;99.90;;;;;;5035876;28;20861;-85
2021/12/20 11:48:01;;;;;;;2.60;1.00;;;-6.80;99.90;;;;;;5054297;28;20398;-83
2021/12/20 11:50:37;;;;;;;3.45;0.93;;;-6.70;99.90;;;;;;5054155;28;20850;-85
2021/12/20 11:53:10;;;;;;;3.20;1.10;;;-6.80;99.90;;;;;;5053942;28;20810;-83
2021/12/20 11:55:46;;;;;;;3.45;1.17;;;-6.90;99.90;;;;;;5052649;28;20388;-84
2021/12/20 11:58:25;;;;;;;2.35;1.17;;;-6.80;99.90;;;;;;5052531;28;20731;-83
2021/12/20 12:01:02;;;;;;;3.95;1.17;;;-7.00;99.90;;;;;;5052589;28;20399;-82
2021/12/20 12:03:35;;;;;;;3.35;1.33;;;-7.00;99.90;;;;;;5052670;28;20458;-85
2021/12/20 12:06:08;;;;;;;2.25;1.30;;;-7.00;99.90;;;;;;5052599;28;20384;-84
2021/12/20 12:08:52;;;;;;;2.85;1.10;;;-7.00;99.90;;;;;;5052483;28;20743;-83
2021/12/20 12:11:33;;;;;;;1.95;1.10;;;-7.10;99.90;;;;;;5053725;28;20459;-84
2021/12/20 12:14:04;;;;;;;3.75;1.10;;;-7.10;99.90;;;;;;5052358;28;20797;-84
2021/12/20 12:16:57;;;;;;;1.55;0.88;;;-7.20;99.90;;;;;;5052003;28;20404;-84
2021/12/20 12:19:45;;;;;;;3.78;1.00;;;-7.30;99.90;;;;;;5052904;28;20765;-83
2021/12/20 12:22:34;;;;;;;2.15;0.90;;;-7.20;99.90;;;;;;5035878;28;20396;-84
2021/12/20 12:25:05;;;;;;;1.83;0.90;;;-7.20;99.90;;;;;;5053435;28;20383;-85
2021/12/20 12:27:35;;;;;;;2.67;1.10;;;-7.10;99.90;;;;;;5052233;28;20396;-83
2021/12/20 12:30:15;;;;;;;2.45;0.93;;;-7.10;99.90;;;;;;5052147;28;20863;-83
2021/12/20 12:32:52;;;;;;;2.22;0.90;;;-7.10;99.90;;;;;;5053141;28;20396;-83
2021/12/20 12:38:36;;;;;;;2.10;0.70;;;-7.20;99.90;;;;;;5052576;28;20408;-84
2021/12/20 12:41:07;;;;;;;3.08;1.02;;;-7.30;99.90;;;;;;5052001;28;20475;-84
2021/12/20 12:43:49;;;;;;;2.80;0.88;;;-7.40;99.90;;;;;;5051766;28;20400;-84
2021/12/20 12:46:51;;;;;;;2.75;1.10;;;-7.30;99.90;;;;;;5052849;28;20406;-82
2021/12/20 12:49:21;;;;;;;3.80;0.88;;;-7.40;99.90;;;;;;5039776;28;20909;-84
2021/12/20 12:51:54;;;;;;;3.63;0.90;;;-7.50;99.90;;;;;;5052736;28;20387;-83
2021/12/20 12:54:53;;;;;;;1.90;0.80;;;-7.50;99.90;;;;;;5037774;28;20407;-83
2021/12/20 12:57:20;;;;;;;2.10;0.90;;;-7.60;99.90;;;;;;5053094;28;20416;-82
2021/12/20 12:59:58;;;;;;;2.50;0.90;;;-7.70;99.90;;;;;;5038564;28;20787;-84
2021/12/20 13:02:33;;;;;;;1.88;0.82;;;-7.70;99.90;;;;;;5032618;28;20393;-83
2021/12/20 13:05:06;;;;;;;2.20;1.00;;;-7.70;99.90;;;;;;5065568;28;20890;-83
2021/12/20 13:07:36;;;;;;;3.28;0.95;;;-7.70;99.90;;;;;;5055272;28;20478;-83
2021/12/20 13:10:39;;;;;;;2.63;1.00;;;-7.70;99.90;;;;;;5046725;28;20852;-84
2021/12/20 13:13:25;;;;;;;2.13;0.90;;;-7.80;99.90;;;;;;5031058;28;20402;-83
2021/12/20 13:15:58;;;;;;;3.08;1.10;;;-7.90;99.90;;;;;;5039325;28;20411;-83
2021/12/20 13:18:35;;;;;;;1.83;0.82;;;-7.90;99.90;;;;;;5049073;28;20762;-84
2021/12/20 13:21:07;;;;;;;4.53;1.23;;;-8.00;99.90;;;;;;5037372;28;20990;-84
2021/12/20 13:23:41;;;;;;;2.80;1.10;;;-7.80;99.90;;;;;;5053376;28;20414;-83